Main page
METAR-TAF:

METAR-TAF

Airports :

Oslo Airport. Gardermoen

Oslo, Norway

latitude: 60-12N, longitude: 011-05E, elevation: 208 m

Current weather observation

The report was made 35 minutes ago, at 23:20 UTC
Wind 6 kt from the South
Temperature 15°C
Humidity 88%
Pressure 1025 hPa
Visibility 10 km or more
Overcast at a height of 900 ft

METAR: ENGM 092320Z 18006KT 9999 OVC009 15/13 Q1025

Time: 01:55 (23:55 UTC)

Forecast

Forecast valid from 09 at 18 UTC to 10 at 18 UTC
Wind 8 kt from the South
Visibility 10 km or more
Scattered clouds at a height of 2000 ft
Probability 40%
from 09 at 19 UTC to 09 at 23 UTC
Broken clouds at a height of 1000 ft
Probability 40%
from 09 at 23 UTC to 10 at 06 UTC
Visibility: 2000 m
Broken clouds at a height of 300 ft
mist
Probability 30%
from 10 at 06 UTC to 10 at 09 UTC
Broken clouds at a height of 800 ft

TAF: ENGM 0918/1018 19008KT 9999 SCT020 PROB40 0919/0923 BKN010 PROB40 0923/1006 2000 BR BKN003 PROB30 1006/1009 BKN008

Weather observations and forecasts of more than 4000 airports (METAR and TAF reports).

The available stations are represented by yellow and red dots on the map.

Hover mouse over dot to see the name of the station.

Then click to see weather observations and forecasts.

To change the map : click on the green buttons with a black cross to zoom in, on the green button with a dash to zoom out, or on the green arrows for adjacent maps.


METAR-TAF: